Time;durP1;ratioP1;P1;durP2;ratioP2;P2;SDS_P1;SDS_P2;PMS_P1;PMS_P2;Temp;Humidity;BMP_temperature;BMP_pressure;BME280_temperature;BME280_humidity;BME280_pressure;Samples;Min_cycle;Max_cycle;Signal;HPM_P1;HPM_P2
2021/10/20 00:00:09;;;;;;;6.40;5.32;;;;;;;13.49;100.00;100611.63;4994827;28;20139;-80
2021/10/20 00:02:36;;;;;;;7.93;5.07;;;;;;;13.43;100.00;100619.06;4996596;28;20041;-78
2021/10/20 00:05:04;;;;;;;7.20;6.07;;;;;;;13.44;100.00;100604.03;5010308;28;20064;-80
2021/10/20 00:07:31;;;;;;;9.95;5.50;;;;;;;13.42;100.00;100595.38;4998169;28;20044;-80
2021/10/20 00:09:59;;;;;;;7.15;6.10;;;;;;;13.46;100.00;100598.63;5010211;28;20060;-80
2021/10/20 00:12:26;;;;;;;8.30;6.95;;;;;;;13.33;100.00;100594.22;5013639;28;20049;-84
2021/10/20 00:14:53;;;;;;;6.43;5.75;;;;;;;13.38;100.00;100594.75;5012911;28;20037;-79
2021/10/20 00:17:20;;;;;;;8.93;6.55;;;;;;;13.13;100.00;100592.94;5013359;28;20396;-83
2021/10/20 00:19:49;;;;;;;7.47;6.70;;;;;;;13.05;100.00;100594.44;5009619;28;20350;-78
2021/10/20 00:22:16;;;;;;;8.70;7.28;;;;;;;12.89;100.00;100592.03;4994754;28;20056;-82
2021/10/20 00:24:44;;;;;;;9.18;7.72;;;;;;;12.76;100.00;100591.16;4991763;28;20037;-78
2021/10/20 00:27:11;;;;;;;8.98;7.20;;;;;;;12.73;100.00;100586.09;5007858;28;20060;-79
2021/10/20 00:29:38;;;;;;;8.73;7.82;;;;;;;12.84;100.00;100579.13;4992958;28;20061;-82
2021/10/20 00:32:05;;;;;;;9.93;8.25;;;;;;;12.94;100.00;100574.03;5006755;28;20064;-81
2021/10/20 00:34:33;;;;;;;10.93;8.77;;;;;;;12.82;100.00;100570.44;5026465;28;20076;-80
2021/10/20 00:37:00;;;;;;;9.02;7.82;;;;;;;12.83;100.00;100563.34;5023470;28;20394;-76
2021/10/20 00:39:27;;;;;;;9.50;8.10;;;;;;;12.95;100.00;100559.88;4991017;28;20137;-86
2021/10/20 00:41:54;;;;;;;9.35;7.60;;;;;;;12.81;100.00;100557.34;4995077;28;20046;-81
2021/10/20 00:44:21;;;;;;;12.70;8.95;;;;;;;12.72;100.00;100550.91;5025077;28;21152;-78
2021/10/20 00:46:49;;;;;;;11.35;8.85;;;;;;;12.80;100.00;100548.59;4993760;28;20037;-83
2021/10/20 00:49:17;;;;;;;11.45;8.30;;;;;;;12.90;100.00;100541.69;5006587;28;20057;-82
2021/10/20 00:51:44;;;;;;;12.27;9.00;;;;;;;13.02;100.00;100534.72;5026417;28;20041;-80
2021/10/20 00:54:12;;;;;;;10.00;8.30;;;;;;;13.11;100.00;100534.06;4988591;28;20053;-88
2021/10/20 00:56:39;;;;;;;10.90;8.25;;;;;;;13.16;100.00;100533.75;5011698;28;20049;-78
2021/10/20 00:59:06;;;;;;;13.90;9.43;;;;;;;13.14;100.00;100533.84;4984162;28;20054;-81
2021/10/20 01:01:34;;;;;;;13.13;8.40;;;;;;;13.03;100.00;100525.84;4978569;28;20049;-78
2021/10/20 01:04:01;;;;;;;9.82;8.18;;;;;;;13.07;100.00;100526.47;5004724;28;20077;-85
2021/10/20 01:06:28;;;;;;;12.00;8.75;;;;;;;13.05;100.00;100510.69;5010020;28;20080;-80
2021/10/20 01:08:55;;;;;;;10.55;9.25;;;;;;;13.02;100.00;100512.75;5013702;28;20063;-79
2021/10/20 01:11:22;;;;;;;14.82;10.45;;;;;;;13.10;100.00;100510.38;5016687;28;20054;-77
2021/10/20 01:13:49;;;;;;;11.82;10.00;;;;;;;13.07;100.00;100511.44;5016369;28;20397;-79
2021/10/20 01:16:18;;;;;;;11.02;9.43;;;;;;;13.11;100.00;100509.44;4998675;28;20060;-79
2021/10/20 01:18:45;;;;;;;10.52;9.10;;;;;;;13.05;100.00;100505.41;5001430;28;20041;-83
2021/10/20 01:21:21;;;;;;;14.27;11.05;;;;;;;13.09;100.00;100498.97;5008943;28;20072;-80
2021/10/20 01:23:49;;;;;;;15.00;11.75;;;;;;;13.06;100.00;100491.28;4986134;28;20511;-81
2021/10/20 01:26:18;;;;;;;18.92;11.98;;;;;;;13.07;100.00;100495.59;5011943;28;20061;-77
2021/10/20 01:28:45;;;;;;;17.17;11.07;;;;;;;12.97;100.00;100484.00;4995348;28;20037;-81
2021/10/20 01:31:13;;;;;;;15.52;12.60;;;;;;;13.00;100.00;100489.03;5024352;28;20050;-79
2021/10/20 01:33:40;;;;;;;15.48;11.25;;;;;;;13.07;100.00;100476.25;4986281;28;20056;-82
2021/10/20 01:36:07;;;;;;;15.88;12.82;;;;;;;13.00;100.00;100485.56;5010967;28;20075;-80
2021/10/20 01:38:34;;;;;;;16.85;11.85;;;;;;;13.07;100.00;100479.75;5001517;28;20045;-83
2021/10/20 01:41:02;;;;;;;15.30;12.73;;;;;;;12.96;100.00;100470.88;5013229;28;20627;-80
2021/10/20 01:43:49;;;;;;;17.55;13.32;;;;;;;12.89;100.00;100468.69;5013659;28;20053;-85
2021/10/20 01:46:21;;;;;;;18.77;14.13;;;;;;;12.80;100.00;100466.69;5008242;28;20057;-79
2021/10/20 01:48:48;;;;;;;21.95;15.50;;;;;;;12.67;100.00;100465.88;5020228;28;20048;-78
2021/10/20 01:51:15;;;;;;;19.52;15.57;;;;;;;12.66;100.00;100465.03;4999370;28;20042;-81
2021/10/20 01:53:43;;;;;;;18.48;14.70;;;;;;;12.77;100.00;100455.50;5011630;28;20040;-78
2021/10/20 01:56:12;;;;;;;19.27;15.48;;;;;;;12.73;100.00;100456.66;5011464;28;20076;-83
2021/10/20 01:58:40;;;;;;;19.75;15.88;;;;;;;12.70;100.00;100443.66;5000812;28;20049;-78
2021/10/20 02:01:08;;;;;;;21.92;16.02;;;;;;;12.83;100.00;100436.56;5021623;28;20056;-83
2021/10/20 02:03:39;;;;;;;22.02;14.57;;;;;;;12.86;100.00;100442.47;5009987;28;20099;-78
2021/10/20 02:06:10;;;;;;;18.48;14.90;;;;;;;12.97;100.00;100436.44;4981968;28;20071;-82
2021/10/20 02:08:37;;;;;;;26.40;16.50;;;;;;;12.94;100.00;100431.38;5012211;28;20116;-80
2021/10/20 02:11:05;;;;;;;21.05;15.60;;;;;;;12.80;100.00;100423.59;5012253;28;20057;-79
2021/10/20 02:13:32;;;;;;;19.33;14.40;;;;;;;12.81;100.00;100426.09;5028959;28;20087;-82
2021/10/20 02:15:59;;;;;;;17.92;14.52;;;;;;;12.78;100.00;100414.91;5013355;28;20046;-77
2021/10/20 02:18:26;;;;;;;19.52;14.27;;;;;;;12.76;100.00;100417.66;4996338;28;20056;-78
2021/10/20 02:20:53;;;;;;;18.60;14.15;;;;;;;12.73;100.00;100414.41;4984635;28;20049;-76
2021/10/20 02:23:21;;;;;;;22.15;13.80;;;;;;;12.77;100.00;100424.63;5007556;28;20340;-78
2021/10/20 02:25:48;;;;;;;16.52;13.30;;;;;;;12.70;100.00;100418.13;4983647;28;20361;-79
2021/10/20 02:28:16;;;;;;;17.15;13.32;;;;;;;12.84;100.00;100412.69;5006660;28;20033;-82
2021/10/20 02:30:43;;;;;;;19.08;12.95;;;;;;;12.82;100.00;100408.47;4997445;28;20041;-80
2021/10/20 02:33:10;;;;;;;17.42;13.48;;;;;;;12.78;100.00;100402.53;5013768;28;20053;-80
2021/10/20 02:35:37;;;;;;;19.10;14.30;;;;;;;12.57;100.00;100406.72;5013891;28;20080;-79
2021/10/20 02:38:04;;;;;;;19.20;15.13;;;;;;;12.56;100.00;100403.25;5003382;28;20041;-83
2021/10/20 02:40:32;;;;;;;17.05;14.10;;;;;;;12.58;100.00;100403.13;5017153;28;20126;-79
2021/10/20 02:42:59;;;;;;;15.23;12.45;;;;;;;12.67;100.00;100395.41;5000915;28;20042;-81
2021/10/20 02:45:26;;;;;;;15.65;13.43;;;;;;;12.65;100.00;100397.31;5018533;28;20049;-79
2021/10/20 02:47:53;;;;;;;17.40;13.75;;;;;;;12.57;100.00;100397.00;5035151;28;20052;-79
2021/10/20 02:50:22;;;;;;;17.27;12.98;;;;;;;12.59;100.00;100387.16;4999559;28;20034;-81
2021/10/20 02:52:49;;;;;;;22.38;14.15;;;;;;;12.57;100.00;100380.31;5018135;28;20053;-85
2021/10/20 02:55:17;;;;;;;15.85;12.13;;;;;;;12.44;100.00;100380.34;5016314;28;20049;-78
2021/10/20 02:57:45;;;;;;;18.65;13.68;;;;;;;12.36;100.00;100374.75;5014095;28;20177;-79
2021/10/20 03:00:12;;;;;;;16.40;13.07;;;;;;;12.44;100.00;100369.78;5030014;28;20036;-75
2021/10/20 03:02:39;;;;;;;17.95;13.75;;;;;;;12.45;100.00;100374.09;5033342;28;20066;-80
2021/10/20 03:05:08;;;;;;;19.50;12.98;;;;;;;12.33;100.00;100369.69;4996394;28;20060;-79
2021/10/20 03:07:35;;;;;;;17.10;12.95;;;;;;;12.25;100.00;100377.28;5012219;28;20045;-86
2021/10/20 03:10:04;;;;;;;20.35;13.90;;;;;;;12.23;100.00;100368.66;4996188;28;20428;-84
2021/10/20 03:12:31;;;;;;;16.88;13.60;;;;;;;12.29;100.00;100371.72;5021042;28;20419;-80
2021/10/20 03:14:58;;;;;;;17.63;14.70;;;;;;;12.06;100.00;100368.00;5028034;28;20131;-86
2021/10/20 03:17:25;;;;;;;19.45;14.10;;;;;;;12.21;100.00;100360.00;5013126;28;20050;-80
2021/10/20 03:19:52;;;;;;;18.75;13.02;;;;;;;12.23;100.00;100363.38;5008991;28;20046;-77
2021/10/20 03:22:19;;;;;;;19.23;13.73;;;;;;;12.21;100.00;100357.38;4996891;28;20511;-81
2021/10/20 03:24:46;;;;;;;16.77;13.45;;;;;;;12.21;100.00;100358.22;4994507;28;20046;-83
2021/10/20 03:27:14;;;;;;;15.95;13.05;;;;;;;12.25;100.00;100354.41;5030052;28;20177;-81
2021/10/20 03:29:42;;;;;;;15.57;13.48;;;;;;;12.21;100.00;100366.13;5008883;28;20037;-78
2021/10/20 03:32:09;;;;;;;21.27;13.15;;;;;;;12.22;100.00;100349.34;5016776;28;20356;-81
2021/10/20 03:34:39;;;;;;;15.45;12.68;;;;;;;12.26;100.00;100344.69;5005696;28;20057;-79
2021/10/20 03:37:06;;;;;;;18.40;13.77;;;;;;;12.21;100.00;100345.00;5032004;28;20045;-86
2021/10/20 03:39:33;;;;;;;20.02;13.43;;;;;;;12.22;100.00;100351.13;5007299;28;20041;-79
2021/10/20 03:42:00;;;;;;;18.80;13.35;;;;;;;12.13;100.00;100350.81;4992758;28;20042;-80
2021/10/20 03:44:27;;;;;;;18.15;13.68;;;;;;;12.05;100.00;100347.03;5012398;28;20050;-82
2021/10/20 03:46:54;;;;;;;15.40;12.68;;;;;;;12.18;100.00;100350.50;5008156;28;20053;-77
2021/10/20 03:49:22;;;;;;;17.70;13.40;;;;;;;12.17;100.00;100343.53;5028873;28;20069;-81
2021/10/20 03:51:49;;;;;;;15.32;11.25;;;;;;;12.29;100.00;100334.75;5007253;28;20045;-83
2021/10/20 03:54:16;;;;;;;16.38;12.07;;;;;;;12.31;100.00;100332.00;5006756;28;20045;-89
2021/10/20 03:56:43;;;;;;;16.00;12.40;;;;;;;12.31;100.00;100334.66;4997773;28;20051;-81
2021/10/20 03:59:10;;;;;;;13.80;12.32;;;;;;;12.29;100.00;100329.50;5015637;28;20049;-84
2021/10/20 04:01:37;;;;;;;13.88;10.88;;;;;;;12.26;100.00;100329.69;5016726;28;20049;-81
2021/10/20 04:04:05;;;;;;;14.75;11.43;;;;;;;12.27;100.00;100328.72;4994787;28;20052;-87
2021/10/20 04:06:32;;;;;;;16.58;11.75;;;;;;;12.14;100.00;100326.13;4979765;28;20376;-84
2021/10/20 04:08:59;;;;;;;15.77;12.88;;;;;;;12.24;100.00;100323.66;5015112;28;20037;-88
2021/10/20 04:11:27;;;;;;;14.32;12.25;;;;;;;12.07;100.00;100322.22;5028402;28;20358;-84
2021/10/20 04:13:54;;;;;;;13.10;11.50;;;;;;;12.18;100.00;100326.75;5010449;28;20042;-78
2021/10/20 04:16:21;;;;;;;15.88;11.35;;;;;;;12.20;100.00;100326.63;5011612;28;20472;-78
2021/10/20 04:18:48;;;;;;;14.85;11.38;;;;;;;12.29;100.00;100318.94;5028641;28;20041;-81
2021/10/20 04:21:16;;;;;;;16.55;11.77;;;;;;;12.24;100.00;100314.91;5028125;28;20061;-79
2021/10/20 04:23:43;;;;;;;14.50;11.43;;;;;;;12.23;100.00;100315.88;5009928;28;20072;-82
2021/10/20 04:26:10;;;;;;;15.23;11.40;;;;;;;12.27;100.00;100309.41;5032146;28;20419;-78
2021/10/20 04:28:37;;;;;;;15.13;11.55;;;;;;;12.24;100.00;100309.63;5028616;28;20053;-80
2021/10/20 04:31:04;;;;;;;13.73;11.10;;;;;;;12.36;100.00;100303.50;5010495;28;20052;-84
2021/10/20 04:33:32;;;;;;;13.02;9.98;;;;;;;12.39;100.00;100300.63;5010360;28;20057;-81
2021/10/20 04:35:59;;;;;;;13.30;11.25;;;;;;;12.30;100.00;100298.66;5010083;28;20145;-81
2021/10/20 04:38:26;;;;;;;12.77;10.30;;;;;;;12.30;100.00;100294.22;5027356;28;20053;-82
2021/10/20 04:40:53;;;;;;;14.85;10.30;;;;;;;12.25;100.00;100282.28;5028171;28;20045;-78
2021/10/20 04:43:21;;;;;;;11.85;10.02;;;;;;;12.28;100.00;100287.34;4996470;28;20037;-81
2021/10/20 04:45:48;;;;;;;12.45;9.38;;;;;;;12.30;100.00;100283.66;5017368;28;20057;-80
2021/10/20 04:48:16;;;;;;;11.77;9.13;;;;;;;12.34;100.00;100271.09;5019958;28;20042;-85
2021/10/20 04:50:43;;;;;;;14.15;9.90;;;;;;;12.37;100.00;100271.69;5013332;28;20080;-81
2021/10/20 04:53:10;;;;;;;11.13;9.43;;;;;;;12.34;100.00;100271.94;4995246;28;20058;-83
2021/10/20 04:55:37;;;;;;;12.40;9.88;;;;;;;12.24;100.00;100273.53;5029333;28;20052;-83
2021/10/20 04:58:08;;;;;;;14.05;10.70;;;;;;;12.11;100.00;100268.31;5014531;28;20050;-83
2021/10/20 05:00:36;;;;;;;11.05;9.80;;;;;;;12.18;100.00;100258.13;5026909;28;20050;-87
2021/10/20 05:03:03;;;;;;;14.68;10.15;;;;;;;12.08;100.00;100262.38;4984419;28;20050;-84
2021/10/20 05:05:31;;;;;;;16.52;10.60;;;;;;;12.01;100.00;100261.13;5009088;28;20175;-80
2021/10/20 05:08:05;;;;;;;12.45;9.48;;;;;;;12.00;100.00;100265.56;5013879;28;20388;-82
2021/10/20 05:10:35;;;;;;;12.25;8.68;;;;;;;11.99;100.00;100268.31;5000032;28;20083;-84
2021/10/20 05:13:02;;;;;;;11.02;9.32;;;;;;;11.87;100.00;100265.56;5021244;28;20053;-87
2021/10/20 05:15:29;;;;;;;12.32;9.35;;;;;;;11.87;100.00;100262.09;5016159;28;20118;-79
2021/10/20 05:17:56;;;;;;;11.63;9.73;;;;;;;12.01;100.00;100256.69;5020659;28;20057;-82
2021/10/20 05:20:24;;;;;;;16.77;10.07;;;;;;;11.88;100.00;100251.44;4995498;28;20041;-79
2021/10/20 05:22:51;;;;;;;14.60;10.07;;;;;;;11.95;100.00;100246.56;5017927;28;20077;-82
2021/10/20 05:25:19;;;;;;;14.13;9.82;;;;;;;11.94;100.00;100241.41;5011425;28;20053;-78
2021/10/20 05:27:47;;;;;;;17.58;9.32;;;;;;;11.96;100.00;100247.41;5016801;28;20152;-80
2021/10/20 05:30:14;;;;;;;12.27;9.00;;;;;;;11.91;100.00;100235.41;5016700;28;20400;-79
2021/10/20 05:32:41;;;;;;;15.23;9.77;;;;;;;11.95;100.00;100229.91;5019051;28;20121;-84
2021/10/20 05:35:09;;;;;;;14.55;9.32;;;;;;;11.92;100.00;100225.69;4998204;28;20401;-80
2021/10/20 05:37:37;;;;;;;14.25;9.50;;;;;;;12.02;100.00;100231.16;5001128;28;20101;-80
2021/10/20 05:40:04;;;;;;;11.70;8.90;;;;;;;12.04;100.00;100226.63;5025379;28;20521;-80
2021/10/20 05:42:31;;;;;;;12.70;8.00;;;;;;;12.02;100.00;100216.19;5007801;28;20060;-83
2021/10/20 05:44:59;;;;;;;11.57;8.63;;;;;;;11.99;100.00;100212.91;4995514;28;20060;-80
2021/10/20 05:47:26;;;;;;;11.90;8.75;;;;;;;12.12;100.00;100204.00;5016326;28;20038;-81
2021/10/20 05:49:53;;;;;;;13.93;8.90;;;;;;;12.09;100.00;100206.03;5014964;28;20481;-81
2021/10/20 05:52:20;;;;;;;11.02;8.38;;;;;;;12.14;100.00;100209.16;5003614;28;20054;-82
2021/10/20 05:54:47;;;;;;;16.60;7.93;;;;;;;12.22;100.00;100203.34;5001953;28;20054;-81
2021/10/20 05:57:14;;;;;;;10.02;7.60;;;;;;;12.18;100.00;100196.59;5035268;28;20057;-85
2021/10/20 05:59:41;;;;;;;15.35;8.18;;;;;;;12.23;100.00;100197.94;5047946;28;20049;-85
2021/10/20 06:02:12;;;;;;;8.48;6.95;;;;;;;12.38;100.00;100194.22;5022646;28;20079;-89
2021/10/20 06:04:41;;;;;;;11.88;7.72;;;;;;;12.42;100.00;100187.72;5016704;28;20149;-84
2021/10/20 06:07:08;;;;;;;10.35;7.93;;;;;;;12.26;100.00;100204.81;5036764;28;20049;-84
2021/10/20 06:09:35;;;;;;;12.60;8.00;;;;;;;12.31;100.00;100195.59;4991352;28;20056;-79
2021/10/20 06:12:03;;;;;;;8.73;6.63;;;;;;;12.39;100.00;100200.31;5022805;28;20050;-84
2021/10/20 06:14:31;;;;;;;7.75;6.90;;;;;;;12.48;100.00;100190.88;5019835;28;20121;-84
2021/10/20 06:16:58;;;;;;;10.45;6.93;;;;;;;12.62;100.00;100191.53;4999793;28;20083;-83
2021/10/20 06:19:29;;;;;;;8.98;6.65;;;;;;;12.73;100.00;100189.91;5033399;28;20071;-84
2021/10/20 06:22:12;;;;;;;13.57;7.00;;;;;;;12.70;100.00;100184.81;5043794;28;20064;-88
2021/10/20 06:24:42;;;;;;;7.85;5.75;;;;;;;12.72;100.00;100181.13;5000657;28;20049;-81
2021/10/20 06:27:09;;;;;;;9.70;6.25;;;;;;;12.82;100.00;100181.28;4999258;28;20046;-87
2021/10/20 06:29:44;;;;;;;10.30;6.72;;;;;;;12.88;100.00;100183.47;5014922;28;20058;-85
2021/10/20 06:32:12;;;;;;;7.40;6.28;;;;;;;12.93;100.00;100170.75;5001871;28;20111;-85
2021/10/20 06:34:40;;;;;;;11.50;6.40;;;;;;;13.05;100.00;100179.53;5013912;28;20074;-85
2021/10/20 06:37:07;;;;;;;10.65;5.90;;;;;;;13.03;100.00;100178.81;5018187;28;20073;-90
2021/10/20 06:39:35;;;;;;;8.63;5.80;;;;;;;13.17;100.00;100176.78;5014152;28;20063;-80
2021/10/20 06:42:03;;;;;;;10.68;5.65;;;;;;;13.27;100.00;100178.75;5029111;28;20163;-79
2021/10/20 06:44:30;;;;;;;13.30;5.30;;;;;;;13.35;100.00;100171.94;4997934;28;20167;-82
2021/10/20 06:46:57;;;;;;;9.40;5.38;;;;;;;13.42;100.00;100170.50;5024654;28;20067;-87
2021/10/20 06:49:26;;;;;;;12.38;5.30;;;;;;;13.52;100.00;100173.25;5017735;28;20041;-81
2021/10/20 06:51:53;;;;;;;14.82;4.95;;;;;;;13.54;100.00;100173.97;4993528;28;20049;-82
2021/10/20 06:54:21;;;;;;;10.35;5.03;;;;;;;13.65;100.00;100168.69;5000996;28;20057;-79
2021/10/20 06:56:50;;;;;;;10.40;5.32;;;;;;;13.60;100.00;100175.31;4999540;28;20041;-78
2021/10/20 06:59:21;;;;;;;8.27;4.85;;;;;;;13.77;99.14;100176.59;5032609;28;20071;-80
2021/10/20 07:01:48;;;;;;;9.25;4.97;;;;;;;13.77;98.91;100176.59;4998401;28;20058;-82
2021/10/20 07:04:16;;;;;;;11.25;5.32;;;;;;;13.84;98.33;100176.00;5014253;28;20045;-80
2021/10/20 07:06:44;;;;;;;7.85;5.38;;;;;;;13.82;98.97;100177.91;5015426;28;20049;-81
2021/10/20 07:09:12;;;;;;;6.93;4.65;;;;;;;13.93;97.82;100169.97;5011631;28;20053;-83
2021/10/20 07:11:41;;;;;;;8.77;4.72;;;;;;;13.92;97.09;100165.66;5032703;28;20053;-79
2021/10/20 07:14:09;;;;;;;9.80;4.95;;;;;;;14.12;95.63;100165.84;4980244;28;20472;-86
2021/10/20 07:16:37;;;;;;;9.10;4.65;;;;;;;14.34;93.62;100151.69;5032415;28;20055;-81
2021/10/20 07:19:06;;;;;;;10.82;4.70;;;;;;;14.36;92.67;100158.56;5024428;28;20115;-82
2021/10/20 07:21:38;;;;;;;6.50;4.30;;;;;;;14.23;92.97;100157.00;5034137;28;20054;-78
2021/10/20 07:24:08;;;;;;;7.85;4.53;;;;;;;14.29;92.30;100153.88;4976780;28;20434;-86
2021/10/20 07:26:35;;;;;;;5.75;4.15;;;;;;;14.40;92.03;100149.38;5032213;28;20049;-80
2021/10/20 07:29:03;;;;;;;7.50;4.07;;;;;;;14.57;90.00;100147.19;5001851;28;20057;-81
2021/10/20 07:31:35;;;;;;;9.70;5.22;;;;;;;14.94;87.83;100140.47;4997126;28;20495;-81
2021/10/20 07:34:04;;;;;;;12.65;4.97;;;;;;;15.33;84.97;100142.50;4989628;28;20157;-84
2021/10/20 07:36:32;;;;;;;6.43;4.40;;;;;;;15.98;81.75;100143.00;5014189;28;20733;-77
2021/10/20 07:39:02;;;;;;;7.90;4.03;;;;;;;16.69;77.37;100140.94;5015056;28;20386;-83
2021/10/20 07:41:30;;;;;;;7.10;4.32;;;;;;;16.93;75.37;100138.72;5007712;28;20065;-82
2021/10/20 07:43:58;;;;;;;7.95;3.78;;;;;;;17.83;71.46;100136.44;5033769;28;20054;-87
2021/10/20 07:46:26;;;;;;;5.68;3.53;;;;;;;18.09;69.83;100140.06;4996603;28;20085;-78
2021/10/20 07:48:54;;;;;;;5.90;4.00;;;;;;;17.62;69.69;100147.31;4995670;28;20350;-78
2021/10/20 07:51:24;;;;;;;12.13;4.85;;;;;;;17.45;70.89;100132.94;5016937;28;20049;-80
2021/10/20 07:53:56;;;;;;;8.85;4.38;;;;;;;18.71;66.00;100130.31;5034839;28;20229;-78
2021/10/20 07:56:31;;;;;;;9.07;4.15;;;;;;;17.98;66.55;100131.47;5010862;28;20052;-78
2021/10/20 07:59:00;;;;;;;9.20;4.15;;;;;;;17.19;70.50;100132.75;4980496;28;20393;-87
2021/10/20 08:01:31;;;;;;;6.40;3.75;;;;;;;17.51;69.98;100127.03;4988814;28;20067;-79
2021/10/20 08:03:58;;;;;;;7.05;3.63;;;;;;;17.84;69.85;100115.00;4993898;28;20446;-81
2021/10/20 08:06:29;;;;;;;4.40;3.17;;;;;;;17.74;68.77;100106.22;4977294;28;20355;-83
2021/10/20 08:08:58;;;;;;;5.97;3.72;;;;;;;18.01;68.53;100110.66;5013842;28;20041;-87
2021/10/20 08:11:27;;;;;;;7.07;3.70;;;;;;;18.90;63.55;100107.97;4996857;28;20041;-84
2021/10/20 08:13:54;;;;;;;5.70;3.47;;;;;;;20.41;57.87;100093.00;5012491;28;20176;-75
2021/10/20 08:16:22;;;;;;;4.70;3.42;;;;;;;21.20;55.07;100089.53;5017564;28;20053;-79
2021/10/20 08:18:57;;;;;;;5.43;3.90;;;;;;;22.17;52.25;100094.66;5015266;28;20045;-87
2021/10/20 08:21:27;;;;;;;9.15;3.20;;;;;;;22.18;51.46;100086.44;4977480;28;20057;-78
2021/10/20 08:23:56;;;;;;;8.60;3.35;;;;;;;22.05;51.71;100088.84;5010560;28;20109;-83
2021/10/20 08:26:24;;;;;;;7.10;3.65;;;;;;;20.81;54.17;100092.16;4989339;28;20349;-80
2021/10/20 08:28:52;;;;;;;5.32;3.17;;;;;;;20.75;55.02;100082.13;5027707;28;20049;-78
2021/10/20 08:31:20;;;;;;;6.43;2.85;;;;;;;19.25;59.41;100094.66;5015762;28;20053;-82
2021/10/20 08:33:56;;;;;;;8.75;3.00;;;;;;;19.69;59.26;100095.38;5010055;28;20049;-79
2021/10/20 08:36:24;;;;;;;6.20;3.00;;;;;;;19.79;57.29;100087.22;5007607;28;20053;-81
2021/10/20 08:38:51;;;;;;;10.63;3.35;;;;;;;19.32;58.03;100083.19;5013712;28;20568;-80
2021/10/20 08:41:19;;;;;;;5.47;2.97;;;;;;;19.34;58.73;100078.53;4978310;28;20044;-79
2021/10/20 08:43:47;;;;;;;9.77;5.43;;;;;;;19.64;58.00;100069.16;5033560;28;20041;-83
2021/10/20 08:46:21;;;;;;;12.55;3.65;;;;;;;18.72;59.76;100065.34;4996329;28;20378;-80
2021/10/20 08:48:48;;;;;;;6.75;2.72;;;;;;;19.13;58.89;100057.56;5009284;28;20048;-76
2021/10/20 08:51:16;;;;;;;4.53;2.80;;;;;;;18.57;59.94;100047.38;5012224;28;20068;-78
2021/10/20 08:53:50;;;;;;;6.28;3.45;;;;;;;17.68;62.80;100045.56;5013196;28;20045;-84
2021/10/20 08:56:22;;;;;;;6.07;2.80;;;;;;;17.61;64.43;100050.66;4978549;28;20045;-81
2021/10/20 08:58:49;;;;;;;4.60;3.33;;;;;;;17.36;65.39;100048.69;5016567;28;20081;-80
2021/10/20 09:01:19;;;;;;;8.18;3.65;;;;;;;17.20;65.67;100038.66;4993986;28;20053;-76
2021/10/20 09:03:47;;;;;;;7.90;2.90;;;;;;;17.01;66.44;100054.72;5011723;28;20052;-83
2021/10/20 09:06:16;;;;;;;4.95;3.53;;;;;;;16.70;67.71;100036.31;5001895;28;20049;-82
2021/10/20 09:08:45;;;;;;;5.28;3.08;;;;;;;16.48;69.39;100032.19;5030629;28;20449;-78
2021/10/20 09:11:39;;;;;;;10.57;3.15;;;;;;;16.46;68.25;100039.44;4994728;28;20041;-76
2021/10/20 09:14:13;;;;;;;6.80;3.20;;;;;;;16.51;68.47;100045.16;5004038;28;20079;-82
2021/10/20 09:16:43;;;;;;;8.60;3.03;;;;;;;16.53;68.33;100032.59;5013918;28;20136;-80
2021/10/20 09:19:22;;;;;;;6.72;3.03;;;;;;;16.68;68.44;100031.16;5010975;28;20266;-86
2021/10/20 09:21:54;;;;;;;5.43;3.03;;;;;;;16.76;67.71;100037.59;5014303;28;20563;-81
2021/10/20 09:24:23;;;;;;;13.20;3.88;;;;;;;16.77;67.26;100042.78;5013198;28;20049;-83
2021/10/20 09:26:56;;;;;;;6.53;3.17;;;;;;;16.74;67.45;100035.06;5038053;28;20040;-76
2021/10/20 09:29:26;;;;;;;7.93;3.10;;;;;;;16.53;68.22;100024.63;4992553;28;20053;-79
2021/10/20 09:31:55;;;;;;;6.47;3.33;;;;;;;16.47;68.63;100001.25;4999611;28;20650;-78
2021/10/20 09:34:36;;;;;;;5.50;2.65;;;;;;;16.30;69.40;99992.22;4994744;28;20054;-80
2021/10/20 09:37:04;;;;;;;4.72;3.10;;;;;;;16.36;69.68;99999.63;4984729;28;20465;-78
2021/10/20 09:39:32;;;;;;;5.80;3.10;;;;;;;16.16;71.79;99993.47;4978930;28;20056;-76
2021/10/20 09:42:11;;;;;;;7.85;3.63;;;;;;;16.11;72.24;99974.47;5015727;28;20052;-81
2021/10/20 09:44:49;;;;;;;9.77;3.25;;;;;;;16.00;72.30;99982.63;5009795;28;20408;-79
2021/10/20 09:47:16;;;;;;;4.68;3.22;;;;;;;16.14;71.92;99981.34;5003073;28;20100;-76
2021/10/20 09:49:54;;;;;;;4.93;3.50;;;;;;;16.10;72.26;99962.19;4991403;28;20050;-83
2021/10/20 09:52:22;;;;;;;4.78;3.25;;;;;;;16.27;73.33;99962.47;5006339;28;20454;-77
2021/10/20 09:54:50;;;;;;;4.28;3.17;;;;;;;16.45;72.15;99966.03;4994049;28;20061;-79
2021/10/20 09:57:29;;;;;;;9.10;3.22;;;;;;;16.30;73.48;99975.44;5014140;28;20469;-79
2021/10/20 09:59:58;;;;;;;5.28;3.47;;;;;;;16.13;75.03;99998.25;5012463;28;20065;-77
2021/10/20 10:02:28;;;;;;;7.90;3.70;;;;;;;15.96;75.65;100007.75;5034905;28;20048;-84
2021/10/20 10:04:56;;;;;;;9.00;4.20;;;;;;;15.79;77.12;100003.16;5000143;28;20057;-82
2021/10/20 10:07:23;;;;;;;9.80;3.63;;;;;;;15.57;79.34;99989.13;4981712;28;20053;-83
2021/10/20 10:09:51;;;;;;;8.50;4.25;;;;;;;15.26;82.71;99991.00;4995022;28;20061;-80
2021/10/20 10:12:20;;;;;;;7.57;4.18;;;;;;;15.16;84.19;99988.34;4997266;28;20493;-79
2021/10/20 10:14:50;;;;;;;11.23;4.90;;;;;;;14.94;87.72;99997.34;4994022;28;20060;-81
2021/10/20 10:17:18;;;;;;;7.30;3.92;;;;;;;14.74;88.93;99984.16;5015107;28;20100;-78
2021/10/20 10:19:46;;;;;;;7.30;3.97;;;;;;;14.72;91.44;99981.63;4979672;28;20049;-79
2021/10/20 10:22:27;;;;;;;8.25;4.40;;;;;;;14.94;89.79;99951.44;5001270;28;20069;-82
2021/10/20 10:24:59;;;;;;;16.25;4.97;;;;;;;14.83;91.50;99927.72;4999308;28;20048;-83
2021/10/20 10:27:29;;;;;;;8.77;5.00;;;;;;;15.08;90.14;99915.75;4998554;28;20053;-87
2021/10/20 10:30:05;;;;;;;7.47;4.30;;;;;;;15.08;89.83;99934.31;4992058;28;20029;-78
2021/10/20 10:32:53;;;;;;;6.80;4.97;;;;;;;15.08;89.77;99921.06;5021319;28;20096;-81
2021/10/20 10:35:26;;;;;;;15.32;4.50;;;;;;;15.06;89.63;99913.25;5034108;28;20099;-78
2021/10/20 10:38:01;;;;;;;6.22;4.65;;;;;;;15.08;90.32;99913.94;5006465;28;20042;-78
2021/10/20 10:40:32;;;;;;;10.27;5.70;;;;;;;15.32;89.12;99900.31;5013699;28;20530;-80
2021/10/20 10:43:09;;;;;;;7.35;4.45;;;;;;;15.37;87.76;99889.31;5011374;28;20050;-81
2021/10/20 10:45:41;;;;;;;9.38;4.20;;;;;;;15.34;87.26;99893.06;4989813;28;20099;-78
2021/10/20 10:48:08;;;;;;;11.65;5.25;;;;;;;15.32;86.37;99889.72;5024715;28;20053;-79
2021/10/20 10:50:49;;;;;;;7.93;4.55;;;;;;;15.16;87.62;99892.06;5014690;28;20136;-79
2021/10/20 10:53:28;;;;;;;8.18;4.80;;;;;;;15.17;87.79;99881.34;4998638;28;20060;-84
2021/10/20 10:56:09;;;;;;;6.82;4.50;;;;;;;15.14;89.65;99870.16;5005533;28;20061;-80
2021/10/20 10:58:55;;;;;;;7.28;4.50;;;;;;;15.48;87.91;99870.59;4997937;28;20057;-81
2021/10/20 11:01:48;;;;;;;7.28;4.55;;;;;;;16.00;84.13;99867.63;5012332;28;20049;-79
2021/10/20 11:04:21;;;;;;;5.95;4.60;;;;;;;16.17;82.53;99865.06;4978888;28;20070;-79
2021/10/20 11:06:56;;;;;;;10.15;5.28;;;;;;;16.16;84.00;99865.19;4999067;28;20065;-80
2021/10/20 11:09:32;;;;;;;9.60;5.10;;;;;;;16.31;82.81;99857.59;5004038;28;20063;-77
2021/10/20 11:12:01;;;;;;;11.13;5.80;;;;;;;16.07;82.36;99828.88;4999060;28;20116;-81
2021/10/20 11:14:30;;;;;;;6.68;4.50;;;;;;;15.89;83.03;99803.09;5011180;28;20994;-86
2021/10/20 11:17:04;;;;;;;8.02;4.10;;;;;;;15.63;85.30;99772.84;5016194;28;20052;-80
2021/10/20 11:19:32;;;;;;;9.63;5.05;;;;;;;15.77;83.81;99768.94;4980946;28;21382;-80
2021/10/20 11:22:02;;;;;;;9.38;4.82;;;;;;;15.83;83.28;99766.50;4999727;28;20523;-81